createdAt,value
2023-04-16T00:02:00.942Z,5.03
2023-04-16T00:04:28.183Z,5.68
2023-04-16T00:06:55.441Z,5.13
2023-04-16T00:09:22.472Z,5.45
2023-04-16T00:11:49.437Z,5.78
2023-04-16T00:14:16.509Z,6.10
2023-04-16T00:16:43.486Z,5.35
2023-04-16T00:19:10.847Z,4.80
2023-04-16T00:21:37.903Z,5.78
2023-04-16T00:24:04.863Z,6.32
2023-04-16T00:26:31.797Z,5.78
2023-04-16T00:28:58.897Z,5.63
2023-04-16T00:31:29.883Z,5.97
2023-04-16T00:33:57.275Z,6.22
2023-04-16T00:36:24.775Z,5.28
2023-04-16T00:38:51.724Z,5.47
2023-04-16T00:41:18.771Z,5.60
2023-04-16T00:43:45.777Z,5.47
2023-04-16T00:46:12.927Z,5.35
2023-04-16T00:48:40.750Z,5.45
2023-04-16T00:51:08.217Z,3.75
2023-04-16T00:53:35.626Z,5.30
2023-04-16T00:56:03.367Z,3.70
2023-04-16T00:58:30.889Z,5.43
2023-04-16T01:00:57.953Z,4.78
2023-04-16T01:03:27.695Z,5.00
2023-04-16T01:05:54.832Z,4.55
2023-04-16T01:08:22.180Z,4.57
2023-04-16T01:10:49.199Z,4.30
2023-04-16T01:13:16.228Z,4.43
2023-04-16T01:15:43.278Z,4.22
2023-04-16T01:18:17.120Z,4.20
2023-04-16T01:20:44.991Z,4.50
2023-04-16T01:23:11.977Z,4.65
2023-04-16T01:25:39.308Z,4.68
2023-04-16T01:28:06.623Z,4.20
2023-04-16T01:30:33.602Z,3.80
2023-04-16T01:33:14.779Z,4.25
2023-04-16T01:35:41.905Z,4.65
2023-04-16T01:38:09.114Z,4.50
2023-04-16T01:40:36.599Z,4.43
2023-04-16T01:43:03.946Z,4.18
2023-04-16T01:45:34.436Z,3.53
2023-04-16T01:48:01.556Z,4.05
2023-04-16T01:50:29.019Z,4.63
2023-04-16T01:52:55.995Z,3.63
2023-04-16T01:55:23.073Z,3.55
2023-04-16T01:57:50.885Z,4.35
2023-04-16T02:00:18.535Z,3.50
2023-04-16T02:02:45.949Z,3.78
2023-04-16T02:05:18.328Z,4.57
2023-04-16T02:07:46.915Z,4.70
2023-04-16T02:10:14.217Z,4.65
2023-04-16T02:12:41.205Z,3.92
2023-04-16T02:15:08.704Z,3.80
2023-04-16T02:17:36.019Z,4.68
2023-04-16T02:20:10.970Z,4.55
2023-04-16T02:23:07.777Z,4.60
2023-04-16T02:25:42.186Z,4.13
2023-04-16T02:28:11.818Z,3.72
2023-04-16T02:30:41.266Z,2.92
2023-04-16T02:33:09.528Z,3.83
2023-04-16T02:35:39.146Z,4.78
2023-04-16T02:38:06.515Z,4.47
2023-04-16T02:40:35.511Z,4.63
2023-04-16T02:43:02.508Z,4.30
2023-04-16T02:45:31.724Z,3.67
2023-04-16T02:47:59.034Z,3.45
2023-04-16T02:50:26.076Z,4.30
2023-04-16T02:52:53.181Z,4.15
2023-04-16T02:55:20.374Z,4.70
2023-04-16T02:57:47.308Z,4.50
2023-04-16T03:00:14.584Z,4.43
2023-04-16T03:02:42.649Z,4.72
2023-04-16T03:05:09.913Z,4.57
2023-04-16T03:07:39.194Z,5.15
2023-04-16T03:10:07.420Z,5.43
2023-04-16T03:12:34.371Z,5.57
2023-04-16T03:15:01.363Z,5.40
2023-04-16T03:17:28.581Z,5.28
2023-04-16T03:19:55.897Z,5.05
2023-04-16T03:22:23.102Z,5.22
2023-04-16T03:24:50.089Z,5.43
2023-04-16T03:27:17.047Z,5.22
2023-04-16T03:29:45.569Z,4.45
2023-04-16T03:32:12.806Z,5.18
2023-04-16T03:34:39.930Z,5.43
2023-04-16T03:37:06.970Z,5.28
2023-04-16T03:39:34.764Z,3.97
2023-04-16T03:42:02.390Z,5.72
2023-04-16T03:44:29.907Z,5.45
2023-04-16T03:46:57.128Z,5.55
2023-04-16T03:49:24.318Z,5.60
2023-04-16T03:51:52.232Z,6.10
2023-04-16T03:54:22.470Z,6.03
2023-04-16T03:56:57.123Z,5.78
2023-04-16T03:59:24.296Z,6.05
2023-04-16T04:01:51.406Z,5.50
2023-04-16T04:04:18.573Z,5.20
2023-04-16T04:06:46.694Z,5.65
2023-04-16T04:09:15.200Z,5.28
2023-04-16T04:11:42.877Z,5.05
2023-04-16T04:14:09.879Z,5.88
2023-04-16T04:16:36.944Z,5.63
2023-04-16T04:19:03.963Z,5.70
2023-04-16T04:21:31.758Z,6.10
2023-04-16T04:23:58.889Z,5.45
2023-04-16T04:26:25.875Z,4.20
2023-04-16T04:28:52.954Z,5.40
2023-04-16T04:31:20.060Z,5.82
2023-04-16T04:33:47.143Z,5.88
2023-04-16T04:36:14.206Z,6.10
2023-04-16T04:38:41.495Z,6.07
2023-04-16T04:41:08.515Z,5.68
2023-04-16T04:43:37.566Z,5.53
2023-04-16T04:46:04.694Z,4.47
2023-04-16T04:48:32.382Z,5.32
2023-04-16T04:50:59.775Z,6.47
2023-04-16T04:53:26.753Z,6.00
2023-04-16T04:55:57.604Z,5.18
2023-04-16T04:58:33.069Z,6.65
2023-04-16T05:01:00.080Z,3.97
2023-04-16T05:03:27.176Z,6.22
2023-04-16T05:05:54.226Z,5.35
2023-04-16T05:08:21.206Z,6.40
2023-04-16T05:10:48.292Z,6.88
2023-04-16T05:13:15.232Z,6.53
2023-04-16T05:15:42.280Z,5.45
2023-04-16T05:18:09.194Z,6.07
2023-04-16T05:20:37.845Z,6.32
2023-04-16T05:23:04.831Z,5.97
2023-04-16T05:25:31.857Z,6.32
2023-04-16T05:27:58.807Z,6.50
2023-04-16T05:30:25.862Z,6.03
2023-04-16T05:32:52.942Z,6.50
2023-04-16T05:35:20.023Z,5.05
2023-04-16T05:37:47.057Z,4.25
2023-04-16T05:40:14.304Z,5.93
2023-04-16T05:42:41.508Z,6.28
2023-04-16T05:45:08.992Z,6.50
2023-04-16T05:47:36.039Z,6.05
2023-04-16T05:50:03.027Z,5.13
2023-04-16T05:52:30.036Z,5.53
2023-04-16T05:54:58.172Z,5.57
2023-04-16T05:57:25.116Z,5.93
2023-04-16T05:59:52.069Z,5.85
2023-04-16T06:02:19.883Z,5.15
2023-04-16T06:04:47.013Z,5.75
2023-04-16T06:07:14.100Z,5.28
2023-04-16T06:09:41.361Z,5.60
2023-04-16T06:12:08.328Z,5.25
2023-04-16T06:14:35.858Z,5.13
2023-04-16T06:17:02.825Z,5.50
2023-04-16T06:19:29.808Z,5.40
2023-04-16T06:21:57.183Z,5.10
2023-04-16T06:24:24.221Z,5.07
2023-04-16T06:26:51.212Z,5.47
2023-04-16T06:29:18.159Z,5.70
2023-04-16T06:31:45.243Z,5.47
2023-04-16T06:34:12.553Z,5.30
2023-04-16T06:36:39.498Z,4.93
2023-04-16T06:39:06.698Z,4.90
2023-04-16T06:41:33.780Z,4.85
2023-04-16T06:44:00.789Z,5.07
2023-04-16T06:46:27.888Z,4.38
2023-04-16T06:48:54.923Z,4.72
2023-04-16T06:51:21.870Z,5.10
2023-04-16T06:53:49.378Z,5.20
2023-04-16T06:56:16.357Z,4.97
2023-04-16T06:58:43.349Z,5.47
2023-04-16T07:01:10.575Z,4.70
2023-04-16T07:03:37.911Z,5.25
2023-04-16T07:06:05.010Z,4.85
2023-04-16T07:08:31.994Z,4.93
2023-04-16T07:10:58.995Z,5.20
2023-04-16T07:13:26.081Z,5.03
2023-04-16T07:15:53.192Z,4.80
2023-04-16T07:18:20.868Z,5.22
2023-04-16T07:20:48.141Z,4.60
2023-04-16T07:23:15.069Z,4.50
2023-04-16T07:25:42.460Z,4.88
2023-04-16T07:28:09.514Z,4.57
2023-04-16T07:30:36.774Z,4.20
2023-04-16T07:33:03.881Z,3.83
2023-04-16T07:35:31.369Z,4.32
2023-04-16T07:37:58.333Z,4.57
2023-04-16T07:40:25.491Z,4.97
2023-04-16T07:42:52.491Z,4.10
2023-04-16T07:45:19.534Z,4.20
2023-04-16T07:47:46.656Z,3.95
2023-04-16T07:50:13.677Z,4.35
2023-04-16T07:52:42.492Z,4.15
2023-04-16T07:55:09.654Z,4.20
2023-04-16T07:57:36.608Z,4.18
2023-04-16T08:00:07.150Z,3.78
2023-04-16T08:02:43.821Z,3.45
2023-04-16T08:05:12.606Z,3.10
2023-04-16T08:07:39.662Z,3.13
2023-04-16T08:10:07.256Z,5.13
2023-04-16T08:12:34.339Z,3.05
2023-04-16T08:15:01.429Z,3.38
2023-04-16T08:17:29.610Z,3.25
2023-04-16T08:19:56.635Z,3.20
2023-04-16T08:22:23.618Z,2.78
2023-04-16T08:24:50.796Z,3.10
2023-04-16T08:27:19.866Z,2.78
2023-04-16T08:29:47.819Z,2.45
2023-04-16T08:32:14.788Z,2.47
2023-04-16T08:34:42.459Z,2.25
2023-04-16T08:37:09.812Z,2.60
2023-04-16T08:39:37.791Z,2.20
2023-04-16T08:42:05.671Z,2.00
2023-04-16T08:44:34.130Z,2.22
2023-04-16T08:47:01.443Z,1.40
2023-04-16T08:49:28.738Z,1.10
2023-04-16T08:51:56.389Z,1.70
2023-04-16T08:54:56.833Z,1.10
2023-04-16T08:57:24.283Z,0.98
2023-04-16T08:59:51.305Z,1.05
2023-04-16T09:02:18.364Z,1.30
2023-04-16T09:04:45.558Z,0.50
2023-04-16T09:07:12.624Z,1.20
2023-04-16T09:09:39.787Z,0.70
2023-04-16T09:12:06.725Z,0.50
2023-04-16T09:14:33.742Z,1.02
2023-04-16T09:17:02.415Z,0.40
2023-04-16T09:19:29.477Z,1.38
2023-04-16T09:21:56.467Z,1.10
2023-04-16T09:24:23.486Z,0.80
2023-04-16T09:26:52.704Z,0.63
2023-04-16T09:29:41.268Z,0.80
2023-04-16T09:32:09.503Z,0.95
2023-04-16T09:35:00.766Z,1.08
2023-04-16T09:37:31.777Z,1.10
2023-04-16T09:42:33.325Z,0.90
2023-04-16T09:47:44.499Z,1.00
2023-04-16T09:50:18.222Z,0.80
2023-04-16T09:52:48.918Z,1.13
2023-04-16T09:55:16.159Z,1.00
2023-04-16T09:57:43.135Z,1.08
2023-04-16T10:00:11.281Z,1.00
2023-04-16T10:02:42.788Z,0.90
2023-04-16T10:05:10.333Z,1.00
2023-04-16T10:07:37.839Z,0.95
2023-04-16T10:10:05.506Z,0.90
2023-04-16T10:12:35.738Z,0.90
2023-04-16T10:15:02.818Z,0.80
2023-04-16T10:17:30.463Z,0.70
2023-04-16T10:19:58.722Z,0.93
2023-04-16T10:22:26.220Z,0.93
2023-04-16T10:24:53.466Z,0.93
2023-04-16T10:27:20.451Z,1.00
2023-04-16T10:29:47.442Z,1.02
2023-04-16T10:32:14.735Z,0.80
2023-04-16T10:34:41.795Z,0.80
2023-04-16T10:37:08.797Z,1.20
2023-04-16T10:39:38.873Z,0.85
2023-04-16T10:42:08.934Z,1.00
2023-04-16T10:44:36.666Z,0.90
2023-04-16T10:47:03.948Z,0.88
2023-04-16T10:49:30.958Z,0.98
2023-04-16T10:51:59.768Z,1.00
2023-04-16T10:54:34.296Z,1.10
2023-04-16T10:57:04.559Z,0.98
2023-04-16T10:59:33.554Z,1.10
2023-04-16T11:02:04.313Z,0.75
2023-04-16T11:04:35.856Z,0.70
2023-04-16T11:07:11.747Z,0.88
2023-04-16T11:09:49.725Z,1.00
2023-04-16T11:12:21.561Z,1.00
2023-04-16T11:14:52.805Z,1.00
2023-04-16T11:17:20.488Z,0.70
2023-04-16T11:19:47.746Z,3.92
2023-04-16T11:22:17.189Z,1.00
2023-04-16T11:24:47.497Z,0.77
2023-04-16T11:27:15.264Z,0.90
2023-04-16T11:29:42.440Z,0.70
2023-04-16T11:32:09.430Z,0.98
2023-04-16T11:34:44.899Z,0.90
2023-04-16T11:37:12.046Z,0.90
2023-04-16T11:39:52.095Z,0.70
2023-04-16T11:42:27.009Z,0.57
2023-04-16T11:44:58.241Z,1.10
2023-04-16T11:47:25.585Z,1.10
2023-04-16T11:49:53.038Z,1.00
2023-04-16T11:52:32.900Z,1.10
2023-04-16T11:54:59.936Z,1.00
2023-04-16T11:57:30.964Z,0.70
2023-04-16T12:02:41.123Z,0.88
2023-04-16T12:05:29.359Z,1.10
2023-04-16T12:07:59.446Z,1.00
2023-04-16T12:10:27.185Z,1.35
2023-04-16T12:12:54.206Z,1.20
2023-04-16T12:15:21.497Z,1.08
2023-04-16T12:17:48.857Z,1.10
2023-04-16T12:20:16.345Z,1.00
2023-04-16T12:22:47.468Z,1.50
2023-04-16T12:25:15.643Z,1.20
2023-04-16T12:27:49.473Z,1.20
2023-04-16T12:30:27.749Z,1.30
2023-04-16T12:33:14.641Z,1.10
2023-04-16T12:35:43.462Z,1.17
2023-04-16T12:38:10.841Z,1.00
2023-04-16T12:40:38.403Z,1.00
2023-04-16T12:43:05.584Z,0.90
2023-04-16T12:45:32.601Z,1.10
2023-04-16T12:47:59.588Z,0.90
2023-04-16T12:50:26.683Z,5.15
2023-04-16T12:52:53.604Z,1.70
2023-04-16T12:55:20.757Z,1.05
2023-04-16T12:57:49.083Z,1.02
2023-04-16T13:00:16.457Z,0.90
2023-04-16T13:02:43.470Z,0.70
2023-04-16T13:05:10.856Z,1.30
2023-04-16T13:07:37.786Z,1.00
2023-04-16T13:10:06.093Z,1.00
2023-04-16T13:12:33.110Z,0.93
2023-04-16T13:15:00.077Z,0.70
2023-04-16T13:17:27.058Z,0.90
2023-04-16T13:19:54.077Z,1.00
2023-04-16T13:22:21.073Z,0.63
2023-04-16T13:24:48.305Z,0.85
2023-04-16T13:27:16.178Z,1.00
2023-04-16T13:29:43.296Z,0.90
2023-04-16T13:32:10.306Z,0.95
2023-04-16T13:34:37.354Z,0.80
2023-04-16T13:37:04.662Z,0.80
2023-04-16T13:39:31.678Z,0.70
2023-04-16T13:41:58.686Z,0.90
2023-04-16T13:44:25.680Z,0.90
2023-04-16T13:46:52.936Z,1.25
2023-04-16T13:49:19.978Z,0.85
2023-04-16T13:51:47.018Z,1.17
2023-04-16T13:54:13.994Z,0.60
2023-04-16T13:56:40.960Z,0.80
2023-04-16T13:59:08.286Z,0.88
2023-04-16T14:01:35.463Z,0.90
2023-04-16T14:04:06.761Z,0.75
2023-04-16T14:06:34.551Z,0.68
2023-04-16T14:09:01.968Z,0.90
2023-04-16T14:11:29.033Z,1.10
2023-04-16T14:13:56.242Z,0.90
2023-04-16T14:16:23.464Z,0.90
2023-04-16T14:18:52.060Z,1.10
2023-04-16T14:21:19.221Z,1.20
2023-04-16T14:23:46.847Z,1.02
2023-04-16T14:26:14.553Z,0.88
2023-04-16T14:28:41.992Z,1.20
2023-04-16T14:31:09.149Z,0.70
2023-04-16T14:33:36.975Z,1.05
2023-04-16T14:36:04.347Z,1.10
2023-04-16T14:38:31.409Z,1.08
2023-04-16T14:41:00.355Z,1.00
2023-04-16T14:43:27.480Z,1.10
2023-04-16T14:45:54.527Z,0.98
2023-04-16T14:48:22.169Z,1.00
2023-04-16T14:50:49.322Z,1.13
2023-04-16T14:53:16.363Z,0.93
2023-04-16T14:55:43.357Z,0.90
2023-04-16T14:58:10.839Z,1.02
2023-04-16T15:00:37.937Z,1.10
2023-04-16T15:03:06.065Z,0.88
2023-04-16T15:05:33.307Z,1.20
2023-04-16T15:08:00.748Z,1.00
2023-04-16T15:10:27.878Z,1.10
2023-04-16T15:12:54.914Z,1.13
2023-04-16T15:15:21.949Z,0.90
2023-04-16T15:17:50.473Z,1.20
2023-04-16T15:20:17.662Z,1.10
2023-04-16T15:22:44.706Z,1.10
2023-04-16T15:25:11.753Z,0.82
2023-04-16T15:27:38.754Z,0.80
2023-04-16T15:30:06.916Z,0.90
2023-04-16T15:32:33.926Z,1.00
2023-04-16T15:35:03.053Z,1.20
2023-04-16T15:37:30.045Z,1.10
2023-04-16T15:39:57.421Z,1.27
2023-04-16T15:42:24.743Z,1.20
2023-04-16T15:44:51.777Z,0.88
2023-04-16T15:47:18.927Z,1.10
2023-04-16T15:49:45.967Z,1.00
2023-04-16T15:52:13.022Z,1.08
2023-04-16T15:54:40.001Z,0.90
2023-04-16T15:57:07.002Z,1.15
2023-04-16T15:59:34.002Z,0.82
2023-04-16T16:02:01.416Z,1.15
2023-04-16T16:04:28.703Z,1.08
2023-04-16T16:06:56.331Z,1.05
2023-04-16T16:09:26.812Z,0.80
2023-04-16T16:11:58.901Z,1.00
2023-04-16T16:14:26.906Z,1.10
2023-04-16T16:16:53.977Z,1.30
2023-04-16T16:19:21.271Z,1.10
2023-04-16T16:21:48.214Z,1.00
2023-04-16T16:24:15.662Z,1.10
2023-04-16T16:26:42.656Z,1.00
2023-04-16T16:29:09.909Z,1.30
2023-04-16T16:31:37.219Z,0.93
2023-04-16T16:34:04.312Z,1.30
2023-04-16T16:36:34.224Z,1.27
2023-04-16T16:39:01.986Z,1.50
2023-04-16T16:41:29.890Z,1.02
2023-04-16T16:43:58.228Z,1.10
2023-04-16T16:46:26.535Z,1.08
2023-04-16T16:48:53.625Z,1.15
2023-04-16T16:51:20.717Z,1.77
2023-04-16T16:53:47.868Z,1.00
2023-04-16T16:56:14.864Z,1.30
2023-04-16T16:58:42.066Z,1.38
2023-04-16T17:01:09.256Z,1.45
2023-04-16T17:03:36.519Z,1.30
2023-04-16T17:06:03.727Z,1.42
2023-04-16T17:08:30.834Z,1.02
2023-04-16T17:10:58.057Z,1.30
2023-04-16T17:13:25.370Z,1.45
2023-04-16T17:15:52.474Z,1.50
2023-04-16T17:18:19.562Z,1.80
2023-04-16T17:20:46.929Z,1.60
2023-04-16T17:23:14.878Z,1.10
2023-04-16T17:25:41.995Z,1.60
2023-04-16T17:28:09.058Z,1.50
2023-04-16T17:30:36.149Z,1.63
2023-04-16T17:33:04.756Z,1.50
2023-04-16T17:35:32.022Z,1.40
2023-04-16T17:37:59.038Z,1.52
2023-04-16T17:40:26.247Z,1.60
2023-04-16T17:42:53.377Z,1.88
2023-04-16T17:45:20.464Z,1.70
2023-04-16T17:47:47.612Z,1.60
2023-04-16T17:50:14.668Z,1.80
2023-04-16T17:52:42.010Z,1.50
2023-04-16T17:55:10.968Z,1.40
2023-04-16T17:57:38.008Z,1.33
2023-04-16T18:00:06.504Z,1.60
2023-04-16T18:02:42.118Z,1.40
2023-04-16T18:05:09.612Z,1.52
2023-04-16T18:07:37.707Z,1.60
2023-04-16T18:10:05.608Z,1.67
2023-04-16T18:12:32.798Z,1.73
2023-04-16T18:14:59.935Z,1.98
2023-04-16T18:17:28.357Z,2.10
2023-04-16T18:19:56.375Z,1.90
2023-04-16T18:22:24.341Z,1.80
2023-04-16T18:24:52.641Z,1.70
2023-04-16T18:27:21.579Z,2.05
2023-04-16T18:29:49.501Z,1.95
2023-04-16T18:32:17.033Z,1.70
2023-04-16T18:34:44.312Z,1.70
2023-04-16T18:37:11.456Z,1.70
2023-04-16T18:39:38.532Z,1.65
2023-04-16T18:42:05.792Z,1.65
2023-04-16T18:44:32.869Z,1.73
2023-04-16T18:47:00.051Z,1.75
2023-04-16T18:49:27.292Z,1.65
2023-04-16T18:51:56.010Z,1.88
2023-04-16T18:54:23.190Z,1.70
2023-04-16T18:56:50.468Z,1.83
2023-04-16T18:59:17.550Z,1.92
2023-04-16T19:01:44.653Z,1.92
2023-04-16T19:04:11.731Z,2.08
2023-04-16T19:06:38.829Z,1.80
2023-04-16T19:09:06.165Z,1.50
2023-04-16T19:11:33.235Z,2.05
2023-04-16T19:14:02.483Z,1.52
2023-04-16T19:16:29.809Z,1.80
2023-04-16T19:18:56.888Z,2.00
2023-04-16T19:21:24.005Z,1.85
2023-04-16T19:23:51.111Z,1.70
2023-04-16T19:26:18.283Z,1.88
2023-04-16T19:28:46.132Z,1.95
2023-04-16T19:31:13.282Z,2.33
2023-04-16T19:33:41.358Z,2.30
2023-04-16T19:36:08.447Z,2.50
2023-04-16T19:38:36.585Z,2.50
2023-04-16T19:41:03.686Z,2.50
2023-04-16T19:43:31.222Z,2.35
2023-04-16T19:45:58.369Z,2.10
2023-04-16T19:48:25.842Z,2.15
2023-04-16T19:50:52.969Z,1.90
2023-04-16T19:53:21.149Z,1.60
2023-04-16T19:55:48.360Z,1.50
2023-04-16T19:58:15.622Z,1.67
2023-04-16T20:00:43.424Z,1.42
2023-04-16T20:03:10.910Z,1.52
2023-04-16T20:05:38.026Z,1.70
2023-04-16T20:08:05.477Z,1.42
2023-04-16T20:10:32.440Z,1.70
2023-04-16T20:12:59.546Z,1.88
2023-04-16T20:15:26.626Z,2.33
2023-04-16T20:17:53.786Z,1.92
2023-04-16T20:20:22.813Z,2.10
2023-04-16T20:22:50.045Z,2.10
2023-04-16T20:25:19.162Z,2.40
2023-04-16T20:27:46.366Z,3.20
2023-04-16T20:30:13.881Z,3.58
2023-04-16T20:32:40.973Z,4.22
2023-04-16T20:35:10.940Z,5.07
2023-04-16T20:37:38.689Z,4.60
2023-04-16T20:40:08.414Z,5.00
2023-04-16T20:42:35.659Z,5.07
2023-04-16T20:45:02.761Z,4.03
2023-04-16T20:47:29.935Z,4.35
2023-04-16T20:49:58.288Z,4.82
2023-04-16T20:52:25.472Z,4.40
2023-04-16T20:54:52.571Z,4.40
2023-04-16T20:57:19.551Z,4.90
2023-04-16T20:59:46.801Z,5.80
2023-04-16T21:02:13.878Z,6.68
2023-04-16T21:04:41.257Z,6.15
2023-04-16T21:07:08.316Z,6.43
2023-04-16T21:09:35.791Z,6.03
2023-04-16T21:12:02.838Z,4.35
2023-04-16T21:14:29.753Z,5.15
2023-04-16T21:16:57.027Z,4.13
2023-04-16T21:19:24.058Z,3.80
2023-04-16T21:21:51.339Z,5.63
2023-04-16T21:24:18.362Z,7.10
2023-04-16T21:26:45.334Z,5.75
2023-04-16T21:29:12.716Z,5.63
2023-04-16T21:31:39.941Z,5.03
2023-04-16T21:34:07.148Z,5.15
2023-04-16T21:36:34.246Z,5.30
2023-04-16T21:39:01.539Z,4.60
2023-04-16T21:41:28.633Z,4.40
2023-04-16T21:43:55.822Z,5.25
2023-04-16T21:46:23.139Z,5.22
2023-04-16T21:48:50.853Z,4.60
2023-04-16T21:51:18.126Z,5.07
2023-04-16T21:53:45.160Z,4.35
2023-04-16T21:56:12.154Z,3.78
2023-04-16T21:58:39.104Z,3.70
2023-04-16T22:01:07.748Z,3.30
2023-04-16T22:03:40.223Z,3.05
2023-04-16T22:06:07.704Z,3.97
2023-04-16T22:08:34.850Z,3.50
2023-04-16T22:11:02.557Z,3.80
2023-04-16T22:13:30.141Z,2.92
2023-04-16T22:15:57.791Z,3.45
2023-04-16T22:18:25.817Z,3.55
2023-04-16T22:20:54.794Z,3.45
2023-04-16T22:23:25.132Z,3.30
2023-04-16T22:25:53.868Z,3.80
2023-04-16T22:28:20.894Z,4.03
2023-04-16T22:30:47.898Z,2.90
2023-04-16T22:33:15.104Z,9.02
2023-04-16T22:35:42.226Z,7.30
2023-04-16T22:38:10.204Z,9.40
2023-04-16T22:40:37.223Z,6.47
2023-04-16T22:43:04.639Z,4.03
2023-04-16T22:45:31.726Z,3.10
2023-04-16T22:47:58.800Z,4.18
2023-04-16T22:50:25.956Z,3.13
2023-04-16T22:52:52.907Z,2.92
2023-04-16T22:55:19.958Z,2.90
2023-04-16T22:57:47.690Z,2.97
2023-04-16T23:00:17.905Z,2.95
2023-04-16T23:02:45.230Z,2.70
2023-04-16T23:05:12.446Z,2.95
2023-04-16T23:07:39.960Z,2.60
2023-04-16T23:10:08.662Z,2.97
2023-04-16T23:12:37.551Z,2.83
2023-04-16T23:15:06.766Z,2.85
2023-04-16T23:17:35.115Z,2.78
2023-04-16T23:20:02.556Z,2.90
2023-04-16T23:22:29.668Z,2.67
2023-04-16T23:24:56.709Z,2.15
2023-04-16T23:27:23.964Z,2.97
2023-04-16T23:29:50.996Z,2.75
2023-04-16T23:32:18.069Z,2.42
2023-04-16T23:34:45.191Z,2.40
2023-04-16T23:37:12.132Z,2.60
2023-04-16T23:39:39.160Z,2.78
2023-04-16T23:42:06.396Z,2.50
2023-04-16T23:44:33.405Z,3.10
2023-04-16T23:47:00.570Z,2.90
2023-04-16T23:49:27.623Z,3.03
2023-04-16T23:51:54.681Z,3.33
2023-04-16T23:54:22.014Z,3.50
2023-04-16T23:56:49.099Z,3.45
2023-04-16T23:59:16.842Z,3.60
